sensor_id;sensor_type;location;lat;lon;timestamp;P1;durP1;ratioP1;P2;durP2;ratioP2
1180;SDS011;579;52.046;8.532;2023-05-10T00:02:02;0.10;;;0.10;;
1180;SDS011;579;52.046;8.532;2023-05-10T00:04:28;0.10;;;0.10;;
1180;SDS011;579;52.046;8.532;2023-05-10T00:06:54;0.10;;;0.10;;
1180;SDS011;579;52.046;8.532;2023-05-10T00:09:20;0.10;;;0.10;;
1180;SDS011;579;52.046;8.532;2023-05-10T00:11:46;0.10;;;0.10;;
1180;SDS011;579;52.046;8.532;2023-05-10T00:14:13;0.10;;;0.10;;
1180;SDS011;579;52.046;8.532;2023-05-10T00:21:44;0.20;;;0.20;;
1180;SDS011;579;52.046;8.532;2023-05-10T00:24:10;0.10;;;0.10;;
1180;SDS011;579;52.046;8.532;2023-05-10T00:26:37;0.20;;;0.20;;
1180;SDS011;579;52.046;8.532;2023-05-10T00:29:03;0.10;;;0.10;;
1180;SDS011;579;52.046;8.532;2023-05-10T00:31:29;0.10;;;0.10;;
1180;SDS011;579;52.046;8.532;2023-05-10T00:33:55;0.15;;;0.15;;
1180;SDS011;579;52.046;8.532;2023-05-10T00:36:21;0.20;;;0.20;;
1180;SDS011;579;52.046;8.532;2023-05-10T00:43:53;0.10;;;0.10;;
1180;SDS011;579;52.046;8.532;2023-05-10T00:46:19;0.10;;;0.10;;
1180;SDS011;579;52.046;8.532;2023-05-10T00:48:46;0.10;;;0.10;;
1180;SDS011;579;52.046;8.532;2023-05-10T00:51:13;0.20;;;0.20;;
1180;SDS011;579;52.046;8.532;2023-05-10T00:53:39;0.20;;;0.20;;
1180;SDS011;579;52.046;8.532;2023-05-10T00:56:06;0.10;;;0.10;;
1180;SDS011;579;52.046;8.532;2023-05-10T00:58:32;0.20;;;0.20;;
1180;SDS011;579;52.046;8.532;2023-05-10T01:00:59;0.10;;;0.10;;
1180;SDS011;579;52.046;8.532;2023-05-10T01:08:32;0.10;;;0.10;;
1180;SDS011;579;52.046;8.532;2023-05-10T01:10:58;0.10;;;0.10;;
1180;SDS011;579;52.046;8.532;2023-05-10T01:13:28;0.10;;;0.10;;
1180;SDS011;579;52.046;8.532;2023-05-10T01:15:59;0.10;;;0.10;;
1180;SDS011;579;52.046;8.532;2023-05-10T01:18:28;0.10;;;0.10;;
1180;SDS011;579;52.046;8.532;2023-05-10T01:20:59;0.10;;;0.10;;
1180;SDS011;579;52.046;8.532;2023-05-10T01:29:35;0.10;;;0.10;;
1180;SDS011;579;52.046;8.532;2023-05-10T01:32:30;0.13;;;0.13;;
1180;SDS011;579;52.046;8.532;2023-05-10T01:35:03;0.10;;;0.10;;
1180;SDS011;579;52.046;8.532;2023-05-10T01:37:37;0.20;;;0.20;;
1180;SDS011;579;52.046;8.532;2023-05-10T01:40:13;0.22;;;0.22;;
1180;SDS011;579;52.046;8.532;2023-05-10T01:42:47;0.20;;;0.20;;
1180;SDS011;579;52.046;8.532;2023-05-10T01:48:26;0.13;;;0.13;;
1180;SDS011;579;52.046;8.532;2023-05-10T01:50:54;0.15;;;0.15;;
1180;SDS011;579;52.046;8.532;2023-05-10T01:53:22;0.20;;;0.20;;
1180;SDS011;579;52.046;8.532;2023-05-10T01:55:49;0.20;;;0.20;;
1180;SDS011;579;52.046;8.532;2023-05-10T01:58:19;0.20;;;0.20;;
1180;SDS011;579;52.046;8.532;2023-05-10T02:00:49;0.10;;;0.10;;
1180;SDS011;579;52.046;8.532;2023-05-10T02:03:18;0.13;;;0.13;;
1180;SDS011;579;52.046;8.532;2023-05-10T02:08:27;0.10;;;0.10;;
1180;SDS011;579;52.046;8.532;2023-05-10T02:10:56;0.10;;;0.10;;
1180;SDS011;579;52.046;8.532;2023-05-10T02:13:24;0.10;;;0.10;;
1180;SDS011;579;52.046;8.532;2023-05-10T02:15:52;0.10;;;0.10;;
1180;SDS011;579;52.046;8.532;2023-05-10T02:18:19;0.10;;;0.10;;
1180;SDS011;579;52.046;8.532;2023-05-10T02:20:47;0.10;;;0.10;;
1180;SDS011;579;52.046;8.532;2023-05-10T02:23:15;0.10;;;0.10;;
1180;SDS011;579;52.046;8.532;2023-05-10T02:31:57;0.13;;;0.13;;
1180;SDS011;579;52.046;8.532;2023-05-10T02:34:25;0.20;;;0.20;;
1180;SDS011;579;52.046;8.532;2023-05-10T02:36:53;0.10;;;0.10;;
1180;SDS011;579;52.046;8.532;2023-05-10T02:39:21;0.15;;;0.15;;
1180;SDS011;579;52.046;8.532;2023-05-10T02:41:48;0.15;;;0.15;;
1180;SDS011;579;52.046;8.532;2023-05-10T02:44:16;0.10;;;0.10;;
1180;SDS011;579;52.046;8.532;2023-05-10T02:46:44;0.17;;;0.17;;
1180;SDS011;579;52.046;8.532;2023-05-10T02:49:12;0.20;;;0.20;;
1180;SDS011;579;52.046;8.532;2023-05-10T02:52:00;0.20;;;0.20;;
1180;SDS011;579;52.046;8.532;2023-05-10T02:54:32;0.10;;;0.10;;
1180;SDS011;579;52.046;8.532;2023-05-10T02:57:05;0.10;;;0.10;;
1180;SDS011;579;52.046;8.532;2023-05-10T02:59:33;0.20;;;0.20;;
1180;SDS011;579;52.046;8.532;2023-05-10T03:01:59;0.20;;;0.20;;
1180;SDS011;579;52.046;8.532;2023-05-10T03:04:27;0.20;;;0.20;;
1180;SDS011;579;52.046;8.532;2023-05-10T03:06:53;0.20;;;0.20;;
1180;SDS011;579;52.046;8.532;2023-05-10T03:16:59;0.10;;;0.10;;
1180;SDS011;579;52.046;8.532;2023-05-10T03:19:35;0.17;;;0.17;;
1180;SDS011;579;52.046;8.532;2023-05-10T03:22:10;0.10;;;0.10;;
1180;SDS011;579;52.046;8.532;2023-05-10T03:24:38;0.10;;;0.10;;
1180;SDS011;579;52.046;8.532;2023-05-10T03:27:05;0.10;;;0.10;;
1180;SDS011;579;52.046;8.532;2023-05-10T03:29:33;0.10;;;0.10;;
1180;SDS011;579;52.046;8.532;2023-05-10T03:32:00;0.25;;;0.25;;
1180;SDS011;579;52.046;8.532;2023-05-10T03:37:11;0.10;;;0.10;;
1180;SDS011;579;52.046;8.532;2023-05-10T03:39:37;0.10;;;0.10;;
1180;SDS011;579;52.046;8.532;2023-05-10T03:42:04;0.10;;;0.10;;
1180;SDS011;579;52.046;8.532;2023-05-10T03:44:30;0.10;;;0.10;;
1180;SDS011;579;52.046;8.532;2023-05-10T03:46:58;0.10;;;0.10;;
1180;SDS011;579;52.046;8.532;2023-05-10T03:49:24;0.10;;;0.10;;
1180;SDS011;579;52.046;8.532;2023-05-10T03:51:50;0.10;;;0.10;;
1180;SDS011;579;52.046;8.532;2023-05-10T03:54:17;0.10;;;0.10;;
1180;SDS011;579;52.046;8.532;2023-05-10T04:01:47;0.10;;;0.10;;
1180;SDS011;579;52.046;8.532;2023-05-10T04:04:13;0.10;;;0.10;;
1180;SDS011;579;52.046;8.532;2023-05-10T04:06:39;0.10;;;0.10;;
1180;SDS011;579;52.046;8.532;2023-05-10T04:09:05;0.10;;;0.10;;
1180;SDS011;579;52.046;8.532;2023-05-10T04:11:31;0.10;;;0.10;;
1180;SDS011;579;52.046;8.532;2023-05-10T04:13:57;0.10;;;0.10;;
1180;SDS011;579;52.046;8.532;2023-05-10T04:16:23;0.10;;;0.10;;
1180;SDS011;579;52.046;8.532;2023-05-10T04:21:59;0.20;;;0.20;;
1180;SDS011;579;52.046;8.532;2023-05-10T04:24:25;0.10;;;0.10;;
1180;SDS011;579;52.046;8.532;2023-05-10T04:26:51;0.20;;;0.20;;
1180;SDS011;579;52.046;8.532;2023-05-10T04:29:19;0.10;;;0.10;;
1180;SDS011;579;52.046;8.532;2023-05-10T04:31:45;0.20;;;0.20;;
1180;SDS011;579;52.046;8.532;2023-05-10T04:34:12;0.20;;;0.20;;
1180;SDS011;579;52.046;8.532;2023-05-10T04:36:38;0.10;;;0.10;;
1180;SDS011;579;52.046;8.532;2023-05-10T04:45:58;0.20;;;0.20;;
1180;SDS011;579;52.046;8.532;2023-05-10T04:48:24;0.10;;;0.10;;
1180;SDS011;579;52.046;8.532;2023-05-10T04:50:50;0.10;;;0.10;;
1180;SDS011;579;52.046;8.532;2023-05-10T04:53:17;0.20;;;0.20;;
1180;SDS011;579;52.046;8.532;2023-05-10T04:55:43;0.20;;;0.20;;
1180;SDS011;579;52.046;8.532;2023-05-10T04:58:10;0.20;;;0.20;;
1180;SDS011;579;52.046;8.532;2023-05-10T05:00:36;0.20;;;0.20;;
1180;SDS011;579;52.046;8.532;2023-05-10T05:08:06;0.00;;;0.00;;
1180;SDS011;579;52.046;8.532;2023-05-10T05:10:32;0.00;;;0.00;;
1180;SDS011;579;52.046;8.532;2023-05-10T05:12:58;0.00;;;0.00;;
1180;SDS011;579;52.046;8.532;2023-05-10T05:15:25;0.00;;;0.00;;
1180;SDS011;579;52.046;8.532;2023-05-10T05:17:51;0.00;;;0.00;;
1180;SDS011;579;52.046;8.532;2023-05-10T05:20:18;0.00;;;0.00;;
1180;SDS011;579;52.046;8.532;2023-05-10T05:22:44;0.00;;;0.00;;
1180;SDS011;579;52.046;8.532;2023-05-10T05:29:59;0.00;;;0.00;;
1180;SDS011;579;52.046;8.532;2023-05-10T05:32:25;0.00;;;0.00;;
1180;SDS011;579;52.046;8.532;2023-05-10T05:34:52;0.00;;;0.00;;
1180;SDS011;579;52.046;8.532;2023-05-10T05:37:19;0.00;;;0.00;;
1180;SDS011;579;52.046;8.532;2023-05-10T05:39:46;0.00;;;0.00;;
1180;SDS011;579;52.046;8.532;2023-05-10T05:42:13;0.00;;;0.00;;
1180;SDS011;579;52.046;8.532;2023-05-10T05:44:39;0.03;;;0.03;;
1180;SDS011;579;52.046;8.532;2023-05-10T05:49:57;0.00;;;0.00;;
1180;SDS011;579;52.046;8.532;2023-05-10T05:52:23;0.00;;;0.00;;
1180;SDS011;579;52.046;8.532;2023-05-10T05:54:49;0.00;;;0.00;;
1180;SDS011;579;52.046;8.532;2023-05-10T05:57:15;0.00;;;0.00;;
1180;SDS011;579;52.046;8.532;2023-05-10T05:59:42;0.00;;;0.00;;
1180;SDS011;579;52.046;8.532;2023-05-10T06:02:09;0.00;;;0.00;;
1180;SDS011;579;52.046;8.532;2023-05-10T06:04:35;0.00;;;0.00;;
1180;SDS011;579;52.046;8.532;2023-05-10T06:12:05;0.00;;;0.00;;
1180;SDS011;579;52.046;8.532;2023-05-10T06:14:31;0.00;;;0.00;;
1180;SDS011;579;52.046;8.532;2023-05-10T06:16:57;0.00;;;0.00;;
1180;SDS011;579;52.046;8.532;2023-05-10T06:19:24;0.00;;;0.00;;
1180;SDS011;579;52.046;8.532;2023-05-10T06:21:51;0.00;;;0.00;;
1180;SDS011;579;52.046;8.532;2023-05-10T06:24:17;0.10;;;0.10;;
1180;SDS011;579;52.046;8.532;2023-05-10T06:26:43;0.00;;;0.00;;
1180;SDS011;579;52.046;8.532;2023-05-10T06:29:10;0.00;;;0.00;;
1180;SDS011;579;52.046;8.532;2023-05-10T06:34:17;0.00;;;0.00;;
1180;SDS011;579;52.046;8.532;2023-05-10T06:36:43;0.00;;;0.00;;
1180;SDS011;579;52.046;8.532;2023-05-10T06:39:10;0.00;;;0.00;;
1180;SDS011;579;52.046;8.532;2023-05-10T06:41:37;0.00;;;0.00;;
1180;SDS011;579;52.046;8.532;2023-05-10T06:44:03;0.00;;;0.00;;
1180;SDS011;579;52.046;8.532;2023-05-10T06:46:30;0.00;;;0.00;;
1180;SDS011;579;52.046;8.532;2023-05-10T06:48:56;0.03;;;0.03;;
1180;SDS011;579;52.046;8.532;2023-05-10T06:55:56;0.00;;;0.00;;
1180;SDS011;579;52.046;8.532;2023-05-10T06:58:22;0.00;;;0.00;;
1180;SDS011;579;52.046;8.532;2023-05-10T07:00:48;0.00;;;0.00;;
1180;SDS011;579;52.046;8.532;2023-05-10T07:03:15;0.00;;;0.00;;
1180;SDS011;579;52.046;8.532;2023-05-10T07:05:41;0.00;;;0.00;;
1180;SDS011;579;52.046;8.532;2023-05-10T07:08:07;0.00;;;0.00;;
1180;SDS011;579;52.046;8.532;2023-05-10T07:10:33;0.00;;;0.00;;
1180;SDS011;579;52.046;8.532;2023-05-10T07:13:00;0.00;;;0.00;;
1180;SDS011;579;52.046;8.532;2023-05-10T07:20:32;0.00;;;0.00;;
1180;SDS011;579;52.046;8.532;2023-05-10T07:22:58;0.00;;;0.00;;
1180;SDS011;579;52.046;8.532;2023-05-10T07:25:25;0.00;;;0.00;;
1180;SDS011;579;52.046;8.532;2023-05-10T07:27:51;0.00;;;0.00;;
1180;SDS011;579;52.046;8.532;2023-05-10T07:30:17;0.00;;;0.00;;
1180;SDS011;579;52.046;8.532;2023-05-10T07:32:43;0.00;;;0.00;;
1180;SDS011;579;52.046;8.532;2023-05-10T07:35:10;0.00;;;0.00;;
1180;SDS011;579;52.046;8.532;2023-05-10T07:42:39;0.00;;;0.00;;
1180;SDS011;579;52.046;8.532;2023-05-10T07:45:05;0.10;;;0.10;;
1180;SDS011;579;52.046;8.532;2023-05-10T07:47:33;0.00;;;0.00;;
1180;SDS011;579;52.046;8.532;2023-05-10T07:50:00;0.00;;;0.00;;
1180;SDS011;579;52.046;8.532;2023-05-10T07:52:26;0.00;;;0.00;;
1180;SDS011;579;52.046;8.532;2023-05-10T07:54:52;0.00;;;0.00;;
1180;SDS011;579;52.046;8.532;2023-05-10T07:57:18;0.00;;;0.00;;
1180;SDS011;579;52.046;8.532;2023-05-10T07:59:58;0.00;;;0.00;;
1180;SDS011;579;52.046;8.532;2023-05-10T08:02:24;0.00;;;0.00;;
1180;SDS011;579;52.046;8.532;2023-05-10T08:04:50;0.00;;;0.00;;
1180;SDS011;579;52.046;8.532;2023-05-10T08:07:17;0.00;;;0.00;;
1180;SDS011;579;52.046;8.532;2023-05-10T08:09:43;0.00;;;0.00;;
1180;SDS011;579;52.046;8.532;2023-05-10T08:12:09;0.00;;;0.00;;
1180;SDS011;579;52.046;8.532;2023-05-10T08:14:35;0.00;;;0.00;;
1180;SDS011;579;52.046;8.532;2023-05-10T08:19:59;0.00;;;0.00;;
1180;SDS011;579;52.046;8.532;2023-05-10T08:22:25;0.00;;;0.00;;
1180;SDS011;579;52.046;8.532;2023-05-10T08:24:51;0.00;;;0.00;;
1180;SDS011;579;52.046;8.532;2023-05-10T08:27:17;0.00;;;0.00;;
1180;SDS011;579;52.046;8.532;2023-05-10T08:29:44;0.00;;;0.00;;
1180;SDS011;579;52.046;8.532;2023-05-10T08:32:10;0.00;;;0.00;;
1180;SDS011;579;52.046;8.532;2023-05-10T08:34:36;0.00;;;0.00;;
1180;SDS011;579;52.046;8.532;2023-05-10T08:40:26;0.00;;;0.00;;
1180;SDS011;579;52.046;8.532;2023-05-10T08:42:54;0.00;;;0.00;;
1180;SDS011;579;52.046;8.532;2023-05-10T08:45:25;0.00;;;0.00;;
1180;SDS011;579;52.046;8.532;2023-05-10T08:47:57;0.00;;;0.00;;
1180;SDS011;579;52.046;8.532;2023-05-10T08:50:25;0.00;;;0.00;;
1180;SDS011;579;52.046;8.532;2023-05-10T08:52:52;0.00;;;0.00;;
1180;SDS011;579;52.046;8.532;2023-05-10T08:55:23;0.00;;;0.00;;
1180;SDS011;579;52.046;8.532;2023-05-10T09:02:54;0.00;;;0.00;;
1180;SDS011;579;52.046;8.532;2023-05-10T09:05:21;0.00;;;0.00;;
1180;SDS011;579;52.046;8.532;2023-05-10T09:07:47;0.10;;;0.10;;
1180;SDS011;579;52.046;8.532;2023-05-10T09:10:14;0.10;;;0.10;;
1180;SDS011;579;52.046;8.532;2023-05-10T09:12:41;0.10;;;0.10;;
1180;SDS011;579;52.046;8.532;2023-05-10T09:15:11;0.10;;;0.10;;
1180;SDS011;579;52.046;8.532;2023-05-10T09:17:41;0.10;;;0.10;;
1180;SDS011;579;52.046;8.532;2023-05-10T09:20:10;0.10;;;0.10;;
1180;SDS011;579;52.046;8.532;2023-05-10T09:27:43;0.05;;;0.05;;
1180;SDS011;579;52.046;8.532;2023-05-10T09:30:14;0.03;;;0.03;;
1180;SDS011;579;52.046;8.532;2023-05-10T09:32:44;0.00;;;0.00;;
1180;SDS011;579;52.046;8.532;2023-05-10T09:35:13;0.00;;;0.00;;
1180;SDS011;579;52.046;8.532;2023-05-10T09:37:41;0.00;;;0.00;;
1180;SDS011;579;52.046;8.532;2023-05-10T09:40:11;0.00;;;0.00;;
1180;SDS011;579;52.046;8.532;2023-05-10T09:42:41;0.00;;;0.00;;
1180;SDS011;579;52.046;8.532;2023-05-10T09:45:29;0.00;;;0.00;;
1180;SDS011;579;52.046;8.532;2023-05-10T09:47:58;0.00;;;0.00;;
1180;SDS011;579;52.046;8.532;2023-05-10T09:50:27;0.00;;;0.00;;
1180;SDS011;579;52.046;8.532;2023-05-10T09:52:54;0.00;;;0.00;;
1180;SDS011;579;52.046;8.532;2023-05-10T09:55:24;0.00;;;0.00;;
1180;SDS011;579;52.046;8.532;2023-05-10T09:57:58;0.03;;;0.03;;
1180;SDS011;579;52.046;8.532;2023-05-10T10:00:26;0.05;;;0.05;;
1180;SDS011;579;52.046;8.532;2023-05-10T10:07:57;0.00;;;0.00;;
1180;SDS011;579;52.046;8.532;2023-05-10T10:10:25;0.00;;;0.00;;
1180;SDS011;579;52.046;8.532;2023-05-10T10:12:51;0.10;;;0.10;;
1180;SDS011;579;52.046;8.532;2023-05-10T10:15:18;0.10;;;0.10;;
1180;SDS011;579;52.046;8.532;2023-05-10T10:17:45;0.10;;;0.10;;
1180;SDS011;579;52.046;8.532;2023-05-10T10:20:13;0.10;;;0.10;;
1180;SDS011;579;52.046;8.532;2023-05-10T10:22:41;0.00;;;0.00;;
1180;SDS011;579;52.046;8.532;2023-05-10T10:32:01;0.10;;;0.10;;
1180;SDS011;579;52.046;8.532;2023-05-10T10:34:33;0.20;;;0.20;;
1180;SDS011;579;52.046;8.532;2023-05-10T10:37:04;0.15;;;0.15;;
1180;SDS011;579;52.046;8.532;2023-05-10T10:39:31;0.10;;;0.10;;
1180;SDS011;579;52.046;8.532;2023-05-10T10:42:01;0.10;;;0.10;;
1180;SDS011;579;52.046;8.532;2023-05-10T10:44:37;0.20;;;0.20;;
1180;SDS011;579;52.046;8.532;2023-05-10T10:47:05;0.10;;;0.10;;
1180;SDS011;579;52.046;8.532;2023-05-10T10:54:28;0.20;;;0.20;;
1180;SDS011;579;52.046;8.532;2023-05-10T10:57:09;0.13;;;0.13;;
1180;SDS011;579;52.046;8.532;2023-05-10T10:59:40;0.10;;;0.10;;
1180;SDS011;579;52.046;8.532;2023-05-10T11:02:08;0.15;;;0.15;;
1180;SDS011;579;52.046;8.532;2023-05-10T11:04:41;1.13;;;1.13;;
1180;SDS011;579;52.046;8.532;2023-05-10T11:07:17;1.05;;;1.05;;
1180;SDS011;579;52.046;8.532;2023-05-10T11:09:46;0.90;;;0.90;;
1180;SDS011;579;52.046;8.532;2023-05-10T11:16:59;0.73;;;0.73;;
1180;SDS011;579;52.046;8.532;2023-05-10T11:19:27;0.60;;;0.60;;
1180;SDS011;579;52.046;8.532;2023-05-10T11:24:38;1.08;;;1.08;;
1180;SDS011;579;52.046;8.532;2023-05-10T11:27:05;1.25;;;1.25;;
1180;SDS011;579;52.046;8.532;2023-05-10T11:29:32;1.10;;;1.10;;
1180;SDS011;579;52.046;8.532;2023-05-10T11:31:58;1.40;;;1.40;;
1180;SDS011;579;52.046;8.532;2023-05-10T11:38:28;0.70;;;0.70;;
1180;SDS011;579;52.046;8.532;2023-05-10T11:40:58;0.75;;;0.75;;
1180;SDS011;579;52.046;8.532;2023-05-10T11:43:24;0.90;;;0.90;;
1180;SDS011;579;52.046;8.532;2023-05-10T11:45:55;0.50;;;0.50;;
1180;SDS011;579;52.046;8.532;2023-05-10T11:48:22;0.60;;;0.60;;
1180;SDS011;579;52.046;8.532;2023-05-10T11:50:49;0.93;;;0.93;;
1180;SDS011;579;52.046;8.532;2023-05-10T11:53:15;0.70;;;0.70;;
1180;SDS011;579;52.046;8.532;2023-05-10T12:00:48;0.68;;;0.68;;
1180;SDS011;579;52.046;8.532;2023-05-10T12:03:15;0.57;;;0.57;;
1180;SDS011;579;52.046;8.532;2023-05-10T12:05:41;0.40;;;0.40;;
1180;SDS011;579;52.046;8.532;2023-05-10T12:08:11;0.50;;;0.50;;
1180;SDS011;579;52.046;8.532;2023-05-10T12:10:39;0.50;;;0.50;;
1180;SDS011;579;52.046;8.532;2023-05-10T12:13:05;0.40;;;0.40;;
1180;SDS011;579;52.046;8.532;2023-05-10T12:15:38;0.47;;;0.47;;
1180;SDS011;579;52.046;8.532;2023-05-10T12:20:43;0.20;;;0.20;;
1180;SDS011;579;52.046;8.532;2023-05-10T12:23:10;0.30;;;0.30;;
1180;SDS011;579;52.046;8.532;2023-05-10T12:25:37;0.30;;;0.30;;
1180;SDS011;579;52.046;8.532;2023-05-10T12:28:04;0.20;;;0.20;;
1180;SDS011;579;52.046;8.532;2023-05-10T12:30:33;0.30;;;0.30;;
1180;SDS011;579;52.046;8.532;2023-05-10T12:33:01;0.30;;;0.30;;
1180;SDS011;579;52.046;8.532;2023-05-10T12:35:30;0.13;;;0.13;;
1180;SDS011;579;52.046;8.532;2023-05-10T12:43:00;0.10;;;0.10;;
1180;SDS011;579;52.046;8.532;2023-05-10T12:45:26;0.10;;;0.10;;
1180;SDS011;579;52.046;8.532;2023-05-10T12:47:53;0.10;;;0.10;;
1180;SDS011;579;52.046;8.532;2023-05-10T12:50:19;0.10;;;0.10;;
1180;SDS011;579;52.046;8.532;2023-05-10T12:52:45;0.20;;;0.20;;
1180;SDS011;579;52.046;8.532;2023-05-10T12:55:11;0.10;;;0.10;;
1180;SDS011;579;52.046;8.532;2023-05-10T12:57:38;0.20;;;0.20;;
1180;SDS011;579;52.046;8.532;2023-05-10T13:02:57;0.13;;;0.13;;
1180;SDS011;579;52.046;8.532;2023-05-10T13:05:23;0.10;;;0.10;;
1180;SDS011;579;52.046;8.532;2023-05-10T13:07:50;0.10;;;0.10;;
1180;SDS011;579;52.046;8.532;2023-05-10T13:10:16;0.30;;;0.30;;
1180;SDS011;579;52.046;8.532;2023-05-10T13:12:43;0.30;;;0.30;;
1180;SDS011;579;52.046;8.532;2023-05-10T13:15:09;0.38;;;0.38;;
1180;SDS011;579;52.046;8.532;2023-05-10T13:17:35;0.30;;;0.30;;
1180;SDS011;579;52.046;8.532;2023-05-10T13:20:05;0.20;;;0.20;;
1180;SDS011;579;52.046;8.532;2023-05-10T13:27:06;0.40;;;0.40;;
1180;SDS011;579;52.046;8.532;2023-05-10T13:29:32;0.55;;;0.55;;
1180;SDS011;579;52.046;8.532;2023-05-10T13:31:59;0.60;;;0.60;;
1180;SDS011;579;52.046;8.532;2023-05-10T13:34:25;0.77;;;0.77;;
1180;SDS011;579;52.046;8.532;2023-05-10T13:36:52;0.70;;;0.70;;
1180;SDS011;579;52.046;8.532;2023-05-10T13:39:20;0.60;;;0.60;;
1180;SDS011;579;52.046;8.532;2023-05-10T13:41:47;0.80;;;0.80;;
1180;SDS011;579;52.046;8.532;2023-05-10T13:49:18;0.30;;;0.30;;
1180;SDS011;579;52.046;8.532;2023-05-10T13:51:44;0.45;;;0.45;;
1180;SDS011;579;52.046;8.532;2023-05-10T13:54:11;0.20;;;0.20;;
1180;SDS011;579;52.046;8.532;2023-05-10T13:56:37;0.20;;;0.20;;
1180;SDS011;579;52.046;8.532;2023-05-10T13:59:03;0.20;;;0.20;;
1180;SDS011;579;52.046;8.532;2023-05-10T14:01:29;0.20;;;0.20;;
1180;SDS011;579;52.046;8.532;2023-05-10T14:03:56;0.10;;;0.10;;
1180;SDS011;579;52.046;8.532;2023-05-10T14:09:17;0.25;;;0.25;;
1180;SDS011;579;52.046;8.532;2023-05-10T14:11:43;0.30;;;0.30;;
1180;SDS011;579;52.046;8.532;2023-05-10T14:14:10;0.47;;;0.47;;
1180;SDS011;579;52.046;8.532;2023-05-10T14:16:38;0.20;;;0.20;;
1180;SDS011;579;52.046;8.532;2023-05-10T14:19:08;0.35;;;0.35;;
1180;SDS011;579;52.046;8.532;2023-05-10T14:21:35;0.35;;;0.35;;
1180;SDS011;579;52.046;8.532;2023-05-10T14:24:01;0.20;;;0.20;;
1180;SDS011;579;52.046;8.532;2023-05-10T14:31:40;0.20;;;0.20;;
1180;SDS011;579;52.046;8.532;2023-05-10T14:34:07;0.30;;;0.30;;
1180;SDS011;579;52.046;8.532;2023-05-10T14:36:33;0.40;;;0.40;;
1180;SDS011;579;52.046;8.532;2023-05-10T14:38:59;0.30;;;0.30;;
1180;SDS011;579;52.046;8.532;2023-05-10T14:41:25;0.30;;;0.30;;
1180;SDS011;579;52.046;8.532;2023-05-10T14:43:52;0.20;;;0.20;;
1180;SDS011;579;52.046;8.532;2023-05-10T14:46:19;0.30;;;0.30;;
1180;SDS011;579;52.046;8.532;2023-05-10T14:53:36;0.90;;;0.90;;
1180;SDS011;579;52.046;8.532;2023-05-10T14:56:03;0.93;;;0.93;;
1180;SDS011;579;52.046;8.532;2023-05-10T14:58:29;0.63;;;0.63;;
1180;SDS011;579;52.046;8.532;2023-05-10T15:00:56;0.85;;;0.85;;
1180;SDS011;579;52.046;8.532;2023-05-10T15:03:22;0.52;;;0.52;;
1180;SDS011;579;52.046;8.532;2023-05-10T15:05:52;0.77;;;0.77;;
1180;SDS011;579;52.046;8.532;2023-05-10T15:08:18;0.88;;;0.88;;
1180;SDS011;579;52.046;8.532;2023-05-10T15:15:48;0.90;;;0.90;;
1180;SDS011;579;52.046;8.532;2023-05-10T15:18:14;0.70;;;0.70;;
1180;SDS011;579;52.046;8.532;2023-05-10T15:20:41;0.70;;;0.70;;
1180;SDS011;579;52.046;8.532;2023-05-10T15:23:07;1.00;;;1.00;;
1180;SDS011;579;52.046;8.532;2023-05-10T15:25:33;1.10;;;1.10;;
1180;SDS011;579;52.046;8.532;2023-05-10T15:28:02;0.80;;;0.80;;
1180;SDS011;579;52.046;8.532;2023-05-10T15:30:29;1.00;;;1.00;;
1180;SDS011;579;52.046;8.532;2023-05-10T15:35:49;0.70;;;0.70;;
1180;SDS011;579;52.046;8.532;2023-05-10T15:38:15;0.80;;;0.80;;
1180;SDS011;579;52.046;8.532;2023-05-10T15:40:41;0.45;;;0.45;;
1180;SDS011;579;52.046;8.532;2023-05-10T15:43:08;0.50;;;0.50;;
1180;SDS011;579;52.046;8.532;2023-05-10T15:45:34;0.35;;;0.35;;
1180;SDS011;579;52.046;8.532;2023-05-10T15:48:00;0.55;;;0.55;;
1180;SDS011;579;52.046;8.532;2023-05-10T15:50:26;0.30;;;0.30;;
1180;SDS011;579;52.046;8.532;2023-05-10T15:57:57;0.50;;;0.50;;
1180;SDS011;579;52.046;8.532;2023-05-10T16:00:23;0.50;;;0.50;;
1180;SDS011;579;52.046;8.532;2023-05-10T16:02:50;0.43;;;0.43;;
1180;SDS011;579;52.046;8.532;2023-05-10T16:05:18;0.50;;;0.50;;
1180;SDS011;579;52.046;8.532;2023-05-10T16:07:44;0.40;;;0.40;;
1180;SDS011;579;52.046;8.532;2023-05-10T16:10:11;0.43;;;0.43;;
1180;SDS011;579;52.046;8.532;2023-05-10T16:12:37;0.50;;;0.50;;
1180;SDS011;579;52.046;8.532;2023-05-10T16:20:09;0.65;;;0.65;;
1180;SDS011;579;52.046;8.532;2023-05-10T16:22:36;0.60;;;0.60;;
1180;SDS011;579;52.046;8.532;2023-05-10T16:25:02;0.80;;;0.80;;
1180;SDS011;579;52.046;8.532;2023-05-10T16:27:30;0.98;;;0.98;;
1180;SDS011;579;52.046;8.532;2023-05-10T16:29:57;0.90;;;0.90;;
1180;SDS011;579;52.046;8.532;2023-05-10T16:32:24;0.68;;;0.68;;
1180;SDS011;579;52.046;8.532;2023-05-10T16:34:50;0.93;;;0.93;;
1180;SDS011;579;52.046;8.532;2023-05-10T16:43:30;0.40;;;0.40;;
1180;SDS011;579;52.046;8.532;2023-05-10T16:45:57;0.55;;;0.55;;
1180;SDS011;579;52.046;8.532;2023-05-10T16:48:23;0.43;;;0.43;;
1180;SDS011;579;52.046;8.532;2023-05-10T16:50:49;0.50;;;0.50;;
1180;SDS011;579;52.046;8.532;2023-05-10T16:53:16;0.40;;;0.40;;
1180;SDS011;579;52.046;8.532;2023-05-10T16:55:42;0.55;;;0.55;;
1180;SDS011;579;52.046;8.532;2023-05-10T16:58:08;0.60;;;0.60;;
1180;SDS011;579;52.046;8.532;2023-05-10T17:03:28;0.52;;;0.52;;
1180;SDS011;579;52.046;8.532;2023-05-10T17:05:54;0.40;;;0.40;;
1180;SDS011;579;52.046;8.532;2023-05-10T17:08:21;0.60;;;0.60;;
1180;SDS011;579;52.046;8.532;2023-05-10T17:10:47;0.55;;;0.55;;
1180;SDS011;579;52.046;8.532;2023-05-10T17:13:13;0.40;;;0.40;;
1180;SDS011;579;52.046;8.532;2023-05-10T17:15:41;0.50;;;0.50;;
1180;SDS011;579;52.046;8.532;2023-05-10T17:18:07;0.70;;;0.70;;
1180;SDS011;579;52.046;8.532;2023-05-10T17:25:37;0.50;;;0.50;;
1180;SDS011;579;52.046;8.532;2023-05-10T17:28:04;0.40;;;0.40;;
1180;SDS011;579;52.046;8.532;2023-05-10T17:30:30;0.40;;;0.40;;
1180;SDS011;579;52.046;8.532;2023-05-10T17:32:57;0.55;;;0.55;;
1180;SDS011;579;52.046;8.532;2023-05-10T17:35:23;0.50;;;0.50;;
1180;SDS011;579;52.046;8.532;2023-05-10T17:37:49;0.40;;;0.40;;
1180;SDS011;579;52.046;8.532;2023-05-10T17:40:16;0.60;;;0.60;;
1180;SDS011;579;52.046;8.532;2023-05-10T17:47:46;0.20;;;0.20;;
1180;SDS011;579;52.046;8.532;2023-05-10T17:50:12;0.20;;;0.20;;
1180;SDS011;579;52.046;8.532;2023-05-10T17:52:38;0.20;;;0.20;;
1180;SDS011;579;52.046;8.532;2023-05-10T17:55:05;0.20;;;0.20;;
1180;SDS011;579;52.046;8.532;2023-05-10T17:57:32;0.10;;;0.10;;
1180;SDS011;579;52.046;8.532;2023-05-10T18:00:02;0.20;;;0.20;;
1180;SDS011;579;52.046;8.532;2023-05-10T18:02:30;0.20;;;0.20;;
1180;SDS011;579;52.046;8.532;2023-05-10T18:09:57;0.20;;;0.20;;
1180;SDS011;579;52.046;8.532;2023-05-10T18:12:25;0.20;;;0.20;;
1180;SDS011;579;52.046;8.532;2023-05-10T18:14:51;0.20;;;0.20;;
1180;SDS011;579;52.046;8.532;2023-05-10T18:17:17;0.20;;;0.20;;
1180;SDS011;579;52.046;8.532;2023-05-10T18:19:43;0.20;;;0.20;;
1180;SDS011;579;52.046;8.532;2023-05-10T18:22:09;0.40;;;0.40;;
1180;SDS011;579;52.046;8.532;2023-05-10T18:24:36;0.20;;;0.20;;
1180;SDS011;579;52.046;8.532;2023-05-10T18:32:01;0.20;;;0.20;;
1180;SDS011;579;52.046;8.532;2023-05-10T18:34:27;0.30;;;0.30;;
1180;SDS011;579;52.046;8.532;2023-05-10T18:36:54;0.30;;;0.30;;
1180;SDS011;579;52.046;8.532;2023-05-10T18:39:21;0.30;;;0.30;;
1180;SDS011;579;52.046;8.532;2023-05-10T18:41:47;0.20;;;0.20;;
1180;SDS011;579;52.046;8.532;2023-05-10T18:44:14;0.50;;;0.50;;
1180;SDS011;579;52.046;8.532;2023-05-10T18:46:40;0.32;;;0.32;;
1180;SDS011;579;52.046;8.532;2023-05-10T18:53:59;0.20;;;0.20;;
1180;SDS011;579;52.046;8.532;2023-05-10T18:56:26;0.30;;;0.30;;
1180;SDS011;579;52.046;8.532;2023-05-10T18:58:52;0.30;;;0.30;;
1180;SDS011;579;52.046;8.532;2023-05-10T19:01:18;0.20;;;0.20;;
1180;SDS011;579;52.046;8.532;2023-05-10T19:03:45;0.30;;;0.30;;
1180;SDS011;579;52.046;8.532;2023-05-10T19:06:11;0.30;;;0.30;;
1180;SDS011;579;52.046;8.532;2023-05-10T19:08:37;0.30;;;0.30;;
1180;SDS011;579;52.046;8.532;2023-05-10T19:17:28;0.20;;;0.20;;
1180;SDS011;579;52.046;8.532;2023-05-10T19:19:54;0.20;;;0.20;;
1180;SDS011;579;52.046;8.532;2023-05-10T19:22:20;0.20;;;0.20;;
1180;SDS011;579;52.046;8.532;2023-05-10T19:24:47;0.30;;;0.30;;
1180;SDS011;579;52.046;8.532;2023-05-10T19:27:13;0.15;;;0.15;;